Terminal Aerodrome Forecast
Issued by NWS Jackson, MS

Home | Current Version | Previous Version | Text Only | Print | Product List | Glossary On
Versions: 1 2 3 4 5 6 7 8 9 10 11 12 13 14
000
FTUS44 KJAN 211722
TAFHBG
TAF
KHBG 211722Z 2118/2218 13005KT P6SM VCTS SCT040CB
     FM212300 15004KT P6SM SCT090
     FM221000 00000KT 4SM BR SCT003
     FM221400 VRB03KT P6SM SKC=

USA.gov is the U.S. government's official web portal to all federal, state and local government web resources and services.